Time;durP1;ratioP1;P1;durP2;ratioP2;P2;SDS_P1;SDS_P2;PMS_P1;PMS_P2;Temp;Humidity;BMP_temperature;BMP_pressure;BME280_temperature;BME280_humidity;BME280_pressure;Samples;Min_cycle;Max_cycle;Signal;HPM_P1;HPM_P2
2021/09/16 00:00:40;;;;;;;;;;;;;;;14.01;89.09;99906.34;5011958;28;854;-58
2021/09/16 00:03:07;;;;;;;;;;;;;;;13.97;89.28;99911.16;5011896;28;803;-58
2021/09/16 00:05:33;;;;;;;;;;;;;;;13.97;89.32;99911.16;5011823;28;925;-58
2021/09/16 00:07:59;;;;;;;;;;;;;;;13.96;89.25;99909.59;5011823;28;862;-58
2021/09/16 00:10:26;;;;;;;;;;;;;;;13.97;89.29;99913.94;5011980;28;1918;-58
2021/09/16 00:12:53;;;;;;;;;;;;;;;13.97;89.17;99905.59;5011743;28;815;-58
2021/09/16 00:15:20;;;;;;;;;;;;;;;13.96;89.29;99908.84;5011794;28;846;-58
2021/09/16 00:17:46;;;;;;;;;;;;;;;13.95;89.14;99912.81;5012155;28;1004;-58
2021/09/16 00:20:13;;;;;;;;;;;;;;;13.98;89.55;99909.97;5011526;28;1271;-58
2021/09/16 00:22:39;;;;;;;;;;;;;;;13.96;89.38;99909.59;4998005;28;1480;-58
2021/09/16 00:25:06;;;;;;;;;;;;;;;13.98;89.43;99912.75;5015715;28;815;-58
2021/09/16 00:27:33;;;;;;;;;;;;;;;14.00;89.57;99910.34;5015615;28;799;-58
2021/09/16 00:29:59;;;;;;;;;;;;;;;14.02;89.40;99913.47;5015591;28;1974;-58
2021/09/16 00:32:26;;;;;;;;;;;;;;;14.02;89.62;99915.47;5015612;28;890;-58
2021/09/16 00:34:53;;;;;;;;;;;;;;;14.01;89.45;99916.66;5015542;28;879;-58
2021/09/16 00:37:19;;;;;;;;;;;;;;;13.99;89.40;99916.31;5015540;28;799;-58
2021/09/16 00:39:46;;;;;;;;;;;;;;;13.96;89.43;99912.38;5015488;28;799;-58
2021/09/16 00:42:18;;;;;;;;;;;;;;;13.98;89.44;99917.53;5015370;28;858;-58
2021/09/16 00:44:46;;;;;;;;;;;;;;;13.93;89.38;99916.00;4997764;28;1206;-58
2021/09/16 00:47:14;;;;;;;;;;;;;;;13.88;89.26;99905.38;5015303;28;807;-58
2021/09/16 00:49:41;;;;;;;;;;;;;;;13.83;89.19;99906.66;5015200;28;1890;-58
2021/09/16 00:52:08;;;;;;;;;;;;;;;13.80;89.40;99909.47;4997646;28;1280;-58
2021/09/16 00:54:36;;;;;;;;;;;;;;;13.76;89.45;99909.56;5015462;28;783;-58
2021/09/16 00:57:02;;;;;;;;;;;;;;;13.73;89.47;99909.59;5015368;28;803;-58
2021/09/16 00:59:29;;;;;;;;;;;;;;;13.71;89.58;99912.00;5015111;28;827;-58
2021/09/16 01:01:55;;;;;;;;;;;;;;;13.68;89.84;99908.88;5015255;28;855;-58
2021/09/16 01:04:22;;;;;;;;;;;;;;;13.67;89.78;99909.28;5014947;28;827;-58
2021/09/16 01:06:48;;;;;;;;;;;;;;;13.68;89.96;99914.44;5015017;28;828;-58
2021/09/16 01:09:15;;;;;;;;;;;;;;;13.69;90.07;99904.88;5014845;28;1882;-58
2021/09/16 01:11:42;;;;;;;;;;;;;;;13.70;90.16;99908.47;4997317;28;836;-58
2021/09/16 01:14:08;;;;;;;;;;;;;;;13.68;89.88;99908.88;5014784;28;831;-58
2021/09/16 01:16:34;;;;;;;;;;;;;;;13.66;90.01;99902.94;5015006;28;959;-58
2021/09/16 01:19:01;;;;;;;;;;;;;;;13.68;90.29;99896.97;5014603;28;1420;-58
2021/09/16 01:21:27;;;;;;;;;;;;;;;13.68;90.29;99896.97;5014705;28;886;-58
2021/09/16 01:23:54;;;;;;;;;;;;;;;13.69;90.18;99890.22;4997044;28;1320;-58
2021/09/16 01:26:20;;;;;;;;;;;;;;;13.68;90.02;99880.31;5014552;28;858;-58
2021/09/16 01:28:47;;;;;;;;;;;;;;;13.67;90.20;99882.28;5014478;28;1973;-58
2021/09/16 01:31:14;;;;;;;;;;;;;;;13.66;90.21;99891.84;5014774;28;823;-58
2021/09/16 01:33:41;;;;;;;;;;;;;;;13.65;90.35;99883.91;5014388;28;870;-58
2021/09/16 01:36:11;;;;;;;;;;;;;;;13.63;90.21;99886.34;5014459;28;830;-58
2021/09/16 01:38:37;;;;;;;;;;;;;;;13.62;90.21;99882.00;5014345;28;863;-58
2021/09/16 01:41:04;;;;;;;;;;;;;;;13.64;90.31;99885.16;5014496;28;827;-58
2021/09/16 01:43:30;;;;;;;;;;;;;;;13.60;90.22;99885.19;5014238;28;819;-58
2021/09/16 01:45:57;;;;;;;;;;;;;;;13.57;89.94;99877.72;5014218;28;858;-58
2021/09/16 01:48:23;;;;;;;;;;;;;;;13.54;90.24;99878.53;5014228;28;861;-58
2021/09/16 01:50:50;;;;;;;;;;;;;;;13.50;90.24;99872.25;5014142;28;1926;-58
2021/09/16 01:53:17;;;;;;;;;;;;;;;13.46;89.95;99871.53;5014281;28;862;-58
2021/09/16 01:55:43;;;;;;;;;;;;;;;13.43;90.34;99877.94;5014145;28;851;-58
2021/09/16 01:58:10;;;;;;;;;;;;;;;13.41;90.30;99883.13;5014079;28;803;-58
2021/09/16 02:00:37;;;;;;;;;;;;;;;13.40;90.52;99875.97;5013992;28;962;-58
2021/09/16 02:03:04;;;;;;;;;;;;;;;13.42;90.61;99879.13;5013856;28;855;-58
2021/09/16 02:05:30;;;;;;;;;;;;;;;13.45;90.80;99886.63;4996354;28;1308;-58
2021/09/16 02:07:57;;;;;;;;;;;;;;;13.47;90.65;99887.78;5014028;28;823;-58
2021/09/16 02:10:23;;;;;;;;;;;;;;;13.51;90.66;99882.16;5013703;28;1947;-58
2021/09/16 02:12:50;;;;;;;;;;;;;;;13.55;90.88;99885.69;5014045;28;823;-58
2021/09/16 02:15:17;;;;;;;;;;;;;;;13.54;90.74;99883.31;5013696;28;863;-58
2021/09/16 02:17:43;;;;;;;;;;;;;;;13.52;90.73;99877.41;5014060;28;1093;-58
2021/09/16 02:20:10;;;;;;;;;;;;;;;13.47;90.61;99885.00;5013480;28;1280;-58
2021/09/16 02:22:36;;;;;;;;;;;;;;;13.45;90.80;99879.06;5013549;28;811;-58
2021/09/16 02:25:03;;;;;;;;;;;;;;;13.41;90.63;99880.34;5013415;28;875;-58
2021/09/16 02:27:30;;;;;;;;;;;;;;;13.35;90.67;99877.25;5013486;28;835;-59
2021/09/16 02:29:56;;;;;;;;;;;;;;;13.28;90.80;99867.03;5013358;28;1906;-58
2021/09/16 02:32:23;;;;;;;;;;;;;;;13.26;90.78;99866.63;5013324;28;863;-58
2021/09/16 02:34:50;;;;;;;;;;;;;;;13.27;90.90;99868.22;5013378;28;851;-58
2021/09/16 02:37:16;;;;;;;;;;;;;;;13.26;90.91;99865.84;5013302;28;831;-58
2021/09/16 02:39:42;;;;;;;;;;;;;;;13.30;90.74;99874.94;5013232;28;849;-58
2021/09/16 02:42:09;;;;;;;;;;;;;;;13.32;90.89;99869.00;5013220;28;779;-58
2021/09/16 02:44:36;;;;;;;;;;;;;;;13.35;90.93;99868.13;5012561;28;878;-58
2021/09/16 02:47:02;;;;;;;;;;;;;;;13.40;91.05;99871.22;5013145;28;838;-59
2021/09/16 02:49:29;;;;;;;;;;;;;;;13.43;91.00;99872.38;5013302;28;1882;-58
2021/09/16 02:51:55;;;;;;;;;;;;;;;13.41;90.66;99860.91;5013104;28;823;-58
2021/09/16 02:54:22;;;;;;;;;;;;;;;13.33;90.18;99865.78;5012858;28;849;-59
2021/09/16 02:56:49;;;;;;;;;;;;;;;13.21;90.08;99867.13;5012998;28;815;-58
2021/09/16 02:59:16;;;;;;;;;;;;;;;13.11;90.32;99865.28;5013052;28;799;-58
2021/09/16 03:01:43;;;;;;;;;;;;;;;13.08;90.77;99866.13;5013078;28;882;-59
2021/09/16 03:04:09;;;;;;;;;;;;;;;13.22;91.05;99868.69;5012798;28;829;-59
2021/09/16 03:06:36;;;;;;;;;;;;;;;13.34;91.14;99867.34;5012798;28;799;-58
2021/09/16 03:09:03;;;;;;;;;;;;;;;13.39;90.72;99866.88;5012633;28;1945;-59
2021/09/16 03:11:30;;;;;;;;;;;;;;;13.39;90.67;99866.88;5012672;28;847;-59
2021/09/16 03:13:56;;;;;;;;;;;;;;;13.19;90.57;99841.00;5012995;28;863;-59
2021/09/16 03:16:23;;;;;;;;;;;;;;;13.37;90.83;99868.50;5012908;28;888;-59
2021/09/16 03:18:48;;;;;;;;;;;;;;;13.42;90.89;99866.03;4997207;28;1228;-59
2021/09/16 03:21:15;;;;;;;;;;;;;;;13.46;90.73;99871.53;5013245;28;783;-58
2021/09/16 03:23:42;;;;;;;;;;;;;;;13.45;90.39;99875.53;5012464;28;831;-58
2021/09/16 03:26:08;;;;;;;;;;;;;;;13.44;90.51;99869.19;5012855;28;827;-59
2021/09/16 03:28:38;;;;;;;;;;;;;;;13.42;90.51;99877.16;5012306;28;1994;-59
2021/09/16 03:31:05;;;;;;;;;;;;;;;13.39;90.10;99886.31;5012541;28;886;-59
2021/09/16 03:33:32;;;;;;;;;;;;;;;13.36;90.36;99883.59;5012555;28;807;-58
2021/09/16 03:35:59;;;;;;;;;;;;;;;13.34;90.46;99892.34;5012553;28;854;-58
2021/09/16 03:38:26;;;;;;;;;;;;;;;13.31;90.19;99887.63;5012453;28;855;-59
2021/09/16 03:40:53;;;;;;;;;;;;;;;13.30;90.26;99888.81;5012459;28;791;-58
2021/09/16 03:43:20;;;;;;;;;;;;;;;13.31;90.72;99892.38;5012519;28;821;-59
2021/09/16 03:45:47;;;;;;;;;;;;;;;13.32;90.90;99897.53;5012404;28;834;-58
2021/09/16 03:48:13;;;;;;;;;;;;;;;13.34;90.76;99892.34;5012431;28;806;-59
2021/09/16 03:50:40;;;;;;;;;;;;;;;13.32;90.42;99897.53;5012256;28;2352;-59
2021/09/16 03:53:06;;;;;;;;;;;;;;;13.31;90.73;99892.38;5012486;28;827;-59
2021/09/16 03:55:33;;;;;;;;;;;;;;;13.29;90.39;99895.56;5011626;28;783;-59
2021/09/16 03:58:00;;;;;;;;;;;;;;;13.26;90.49;99911.03;5012396;28;829;-59
2021/09/16 04:00:27;;;;;;;;;;;;;;;13.23;90.44;99903.56;5012384;28;775;-59
2021/09/16 04:02:53;;;;;;;;;;;;;;;13.20;90.37;99900.84;5012489;28;747;-59
2021/09/16 04:05:20;;;;;;;;;;;;;;;13.18;90.34;99911.56;5011903;28;814;-59
2021/09/16 04:07:47;;;;;;;;;;;;;;;13.14;90.44;99902.50;5010589;28;1188;-59
2021/09/16 04:10:13;;;;;;;;;;;;;;;13.11;90.31;99908.91;5011758;28;1957;-58
2021/09/16 04:12:39;;;;;;;;;;;;;;;13.06;90.34;99910.94;5011817;28;862;-59
2021/09/16 04:15:06;;;;;;;;;;;;;;;13.02;90.36;99917.75;5011817;28;862;-59
2021/09/16 04:17:33;;;;;;;;;;;;;;;12.99;90.54;99918.56;5012189;28;881;-59
2021/09/16 04:19:59;;;;;;;;;;;;;;;13.01;90.89;99922.47;5011546;28;1247;-59
2021/09/16 04:22:26;;;;;;;;;;;;;;;13.03;90.70;99911.75;5011634;28;870;-59
2021/09/16 04:24:53;;;;;;;;;;;;;;;13.07;90.82;99917.25;5011591;28;931;-59
2021/09/16 04:27:19;;;;;;;;;;;;;;;13.14;91.14;99908.06;5011649;28;886;-59
2021/09/16 04:29:46;;;;;;;;;;;;;;;13.24;91.11;99913.44;5011547;28;1967;-59
2021/09/16 04:32:12;;;;;;;;;;;;;;;13.42;91.50;99912.44;5011621;28;870;-59
2021/09/16 04:34:38;;;;;;;;;;;;;;;13.58;91.85;99914.59;5011598;28;866;-59
2021/09/16 04:37:05;;;;;;;;;;;;;;;13.64;91.49;99921.25;5011566;28;886;-59
2021/09/16 04:39:32;;;;;;;;;;;;;;;13.69;91.51;99924.31;5011503;28;883;-58
2021/09/16 04:41:59;;;;;;;;;;;;;;;13.80;91.59;99928.91;5011480;28;849;-59
2021/09/16 04:44:25;;;;;;;;;;;;;;;13.98;91.51;99925.88;5011753;28;866;-58
2021/09/16 04:46:52;;;;;;;;;;;;;;;14.16;91.39;99928.31;5011442;28;854;-59
2021/09/16 04:49:18;;;;;;;;;;;;;;;14.34;91.29;99928.81;5011485;28;1890;-59
2021/09/16 04:51:46;;;;;;;;;;;;;;;14.50;91.05;99939.22;5011286;28;839;-59
2021/09/16 04:54:12;;;;;;;;;;;;;;;14.63;90.49;99939.41;5011437;28;909;-58
2021/09/16 04:56:39;;;;;;;;;;;;;;;14.61;89.89;99945.38;5011402;28;807;-59
2021/09/16 04:59:06;;;;;;;;;;;;;;;14.55;89.78;99937.94;5011327;28;859;-59
2021/09/16 05:01:33;;;;;;;;;;;;;;;14.57;90.15;99939.09;5011685;28;823;-59
2021/09/16 05:03:59;;;;;;;;;;;;;;;14.71;90.09;99946.41;5011304;28;894;-59
2021/09/16 05:06:26;;;;;;;;;;;;;;;14.85;90.11;99948.09;5011398;28;815;-59
2021/09/16 05:08:53;;;;;;;;;;;;;;;15.02;89.85;99941.41;5014896;28;1971;-59
2021/09/16 05:16:29;;;;;;;;;;;;;;;15.49;88.22;99948.72;5721748;22;1668;-70
2021/09/16 05:18:55;;;;;;;;;;;;;;;15.65;87.25;99951.56;5015110;28;803;-70
2021/09/16 05:21:22;;;;;;;;;;;;;;;15.80;86.55;99959.63;5014795;28;842;-69
2021/09/16 05:23:48;;;;;;;;;;;;;;;15.99;86.19;99953.16;5014734;28;842;-69
2021/09/16 05:26:15;;;;;;;;;;;;;;;16.29;84.75;99951.22;5014668;28;894;-69
2021/09/16 05:28:44;;;;;;;;;;;;;;;16.45;83.81;99956.78;5014757;28;1914;-69
2021/09/16 05:31:11;;;;;;;;;;;;;;;16.69;83.13;99956.53;4996947;28;1297;-69
2021/09/16 05:33:37;;;;;;;;;;;;;;;17.08;81.76;99954.69;5014657;28;830;-69
2021/09/16 05:36:04;;;;;;;;;;;;;;;17.36;80.87;99950.25;5014502;28;834;-69
2021/09/16 05:38:30;;;;;;;;;;;;;;;17.53;79.68;99948.91;5014365;28;853;-69
2021/09/16 05:40:57;;;;;;;;;;;;;;;17.62;78.62;99950.25;5014500;28;827;-69
2021/09/16 05:43:24;;;;;;;;;;;;;;;17.77;77.30;99948.56;5014525;28;881;-68
2021/09/16 05:45:51;;;;;;;;;;;;;;;18.23;76.63;99946.28;5014470;28;884;-69
2021/09/16 05:48:20;;;;;;;;;;;;;;;19.01;74.32;99953.16;5014268;28;890;-69
2021/09/16 05:50:47;;;;;;;;;;;;;;;19.93;71.83;99945.19;5014186;28;1890;-69
2021/09/16 05:53:13;;;;;;;;;;;;;;;20.62;69.88;99945.13;5014161;28;830;-69
2021/09/16 05:55:41;;;;;;;;;;;;;;;21.15;68.35;99948.34;5014239;28;802;-69
2021/09/16 05:58:07;;;;;;;;;;;;;;;21.55;66.63;99947.31;5014129;28;886;-69
2021/09/16 06:00:34;;;;;;;;;;;;;;;21.73;65.97;99952.06;5014042;28;882;-69
2021/09/16 06:03:01;;;;;;;;;;;;;;;21.77;64.68;99949.84;5013973;28;858;-69
2021/09/16 06:05:27;;;;;;;;;;;;;;;21.56;65.33;99950.88;5013932;28;846;-69
2021/09/16 06:07:54;;;;;;;;;;;;;;;21.38;65.71;99962.97;5013941;28;851;-69
2021/09/16 06:10:20;;;;;;;;;;;;;;;21.16;66.08;99965.97;5013857;28;1951;-69
2021/09/16 06:12:46;;;;;;;;;;;;;;;21.05;66.48;99968.50;5013848;28;854;-70
2021/09/16 06:15:12;;;;;;;;;;;;;;;20.85;67.16;99966.97;5013618;28;867;-70
2021/09/16 06:17:39;;;;;;;;;;;;;;;20.92;67.22;99972.25;5013482;28;1233;-69
2021/09/16 06:20:07;;;;;;;;;;;;;;;21.16;66.90;99969.56;5012968;28;815;-69
2021/09/16 06:22:34;;;;;;;;;;;;;;;21.55;65.53;99972.63;5013768;28;838;-68
2021/09/16 06:25:01;;;;;;;;;;;;;;;21.76;65.18;99970.81;5013630;28;810;-69
2021/09/16 06:27:27;;;;;;;;;;;;;;;22.29;63.28;99957.38;5013561;28;838;-69
2021/09/16 06:29:54;;;;;;;;;;;;;;;22.94;61.05;99964.06;5013439;28;1946;-69
2021/09/16 06:32:21;;;;;;;;;;;;;;;23.71;59.26;99964.34;5013479;28;877;-69
2021/09/16 06:34:47;;;;;;;;;;;;;;;24.47;56.49;99964.34;4995842;28;1657;-69
2021/09/16 06:37:14;;;;;;;;;;;;;;;24.91;55.46;99968.22;5013617;28;807;-69
2021/09/16 06:39:42;;;;;;;;;;;;;;;25.45;53.82;99962.81;5013325;28;799;-69
2021/09/16 06:42:09;;;;;;;;;;;;;;;26.14;51.68;99965.63;5013335;28;834;-68
2021/09/16 06:44:35;;;;;;;;;;;;;;;26.85;51.00;99974.16;5013125;28;840;-69
2021/09/16 06:47:02;;;;;;;;;;;;;;;27.52;49.18;99961.31;5013114;28;890;-69
2021/09/16 06:49:28;;;;;;;;;;;;;;;27.86;47.40;99973.44;5013058;28;1937;-69
2021/09/16 06:51:56;;;;;;;;;;;;;;;27.89;46.42;99966.72;5013328;28;823;-69
2021/09/16 06:54:22;;;;;;;;;;;;;;;27.76;46.43;99980.69;5013065;28;875;-69
2021/09/16 06:56:49;;;;;;;;;;;;;;;28.06;45.88;99972.38;5012992;28;827;-69
2021/09/16 06:59:16;;;;;;;;;;;;;;;28.39;45.04;99967.84;5012962;28;882;-69
2021/09/16 07:01:42;;;;;;;;;;;;;;;28.36;44.32;99976.66;5012930;28;874;-68
2021/09/16 07:04:09;;;;;;;;;;;;;;;28.36;44.59;99974.59;5012889;28;875;-69
2021/09/16 07:06:36;;;;;;;;;;;;;;;28.68;43.82;99971.38;5013115;28;906;-69
2021/09/16 07:09:03;;;;;;;;;;;;;;;28.99;42.81;99975.06;4995121;28;1890;-69
2021/09/16 07:11:30;;;;;;;;;;;;;;;29.22;42.08;99973.63;5012770;28;830;-68
2021/09/16 07:13:57;;;;;;;;;;;;;;;29.22;41.87;99972.88;5012609;28;987;-68
2021/09/16 07:16:23;;;;;;;;;;;;;;;29.35;40.99;99970.19;5012592;28;1235;-68
2021/09/16 07:18:50;;;;;;;;;;;;;;;29.71;40.40;99979.47;5012628;28;798;-69
2021/09/16 07:21:16;;;;;;;;;;;;;;;29.78;40.19;99977.34;5012607;28;818;-68
2021/09/16 07:23:43;;;;;;;;;;;;;;;29.91;38.73;99986.78;5012600;28;799;-68
2021/09/16 07:26:10;;;;;;;;;;;;;;;29.92;38.93;99984.69;5012649;28;854;-68
2021/09/16 07:28:38;;;;;;;;;;;;;;;30.02;38.75;99982.25;5012655;28;811;-68
2021/09/16 07:31:07;;;;;;;;;;;;;;;29.90;38.99;99982.38;5012210;28;1913;-68
2021/09/16 07:33:33;;;;;;;;;;;;;;;30.31;38.58;99980.66;4994831;28;897;-68
2021/09/16 07:36:00;;;;;;;;;;;;;;;30.59;38.36;99988.84;5012324;28;851;-68
2021/09/16 07:38:27;;;;;;;;;;;;;;;30.71;37.94;99989.50;5012331;28;862;-68
2021/09/16 07:40:54;;;;;;;;;;;;;;;30.54;37.41;99986.88;5012262;28;854;-68
2021/09/16 07:43:20;;;;;;;;;;;;;;;30.61;37.14;99982.63;5012361;28;783;-68
2021/09/16 07:45:47;;;;;;;;;;;;;;;30.90;36.90;99984.59;4994589;28;1382;-68
2021/09/16 07:48:13;;;;;;;;;;;;;;;31.13;36.39;99981.38;5012185;28;920;-68
2021/09/16 07:50:40;;;;;;;;;;;;;;;30.87;36.41;99982.78;5012068;28;1882;-68
2021/09/16 07:53:09;;;;;;;;;;;;;;;29.76;37.97;99980.69;5012065;28;807;-68
2021/09/16 07:55:36;;;;;;;;;;;;;;;28.89;39.91;99985.97;5012008;28;846;-68
2021/09/16 07:58:04;;;;;;;;;;;;;;;29.32;39.43;99976.94;5011989;28;1018;-67
2021/09/16 08:00:31;;;;;;;;;;;;;;;29.81;38.27;99979.09;5011989;28;803;-67
2021/09/16 08:02:58;;;;;;;;;;;;;;;30.28;37.41;99976.81;5011990;28;806;-68
2021/09/16 08:05:24;;;;;;;;;;;;;;;30.89;36.57;99985.13;5011839;28;888;-67
2021/09/16 08:07:51;;;;;;;;;;;;;;;31.21;36.88;99979.44;5011881;28;799;-68
2021/09/16 08:10:17;;;;;;;;;;;;;;;31.11;36.87;99981.94;5011819;28;1890;-67
2021/09/16 08:12:44;;;;;;;;;;;;;;;31.00;36.57;99976.38;5011801;28;812;-68
2021/09/16 08:15:11;;;;;;;;;;;;;;;31.01;37.37;99977.16;4994161;28;1391;-68
2021/09/16 08:17:38;;;;;;;;;;;;;;;31.13;37.22;99978.53;5011699;28;1199;-67
2021/09/16 08:20:06;;;;;;;;;;;;;;;31.19;37.34;99978.44;5011852;28;846;-68
2021/09/16 08:22:34;;;;;;;;;;;;;;;31.02;37.38;99979.47;5011721;28;823;-68
2021/09/16 08:25:01;;;;;;;;;;;;;;;30.89;36.76;99973.69;5011678;28;941;-68
2021/09/16 08:27:32;;;;;;;;;;;;;;;30.83;37.06;99967.28;5011606;28;1030;-68
2021/09/16 08:29:59;;;;;;;;;;;;;;;30.66;37.27;99976.06;5011527;28;1910;-68
2021/09/16 08:32:25;;;;;;;;;;;;;;;31.14;37.03;99975.13;5011584;28;846;-67
2021/09/16 08:34:52;;;;;;;;;;;;;;;31.23;36.04;99971.09;5011602;28;878;-67
2021/09/16 08:37:19;;;;;;;;;;;;;;;31.00;36.19;99967.81;5011580;28;856;-66
2021/09/16 08:39:45;;;;;;;;;;;;;;;30.60;36.36;99969.66;5011516;28;815;-67
2021/09/16 08:42:12;;;;;;;;;;;;;;;30.47;36.74;99978.91;5012890;28;879;-66
2021/09/16 08:44:41;;;;;;;;;;;;;;;30.67;35.86;99972.69;5015347;28;819;-67
2021/09/16 08:47:07;;;;;;;;;;;;;;;30.67;35.75;99969.81;5015411;28;822;-67
2021/09/16 08:49:34;;;;;;;;;;;;;;;30.57;36.24;99973.59;5015499;28;1953;-67
2021/09/16 08:52:00;;;;;;;;;;;;;;;30.33;36.08;99967.41;5015312;28;898;-67
2021/09/16 08:54:27;;;;;;;;;;;;;;;29.99;37.38;99966.25;5015231;28;894;-67
2021/09/16 08:56:54;;;;;;;;;;;;;;;29.99;37.02;99963.41;5015219;28;893;-66
2021/09/16 08:59:21;;;;;;;;;;;;;;;30.01;37.20;99961.53;5015176;28;889;-66
2021/09/16 09:01:48;;;;;;;;;;;;;;;30.27;37.00;99963.81;5015093;28;920;-68
2021/09/16 09:04:15;;;;;;;;;;;;;;;30.05;37.07;99959.16;5015233;28;823;-67
2021/09/16 09:06:43;;;;;;;;;;;;;;;29.91;37.01;99960.34;5015084;28;835;-67
2021/09/16 09:09:14;;;;;;;;;;;;;;;29.89;38.43;99954.41;5014961;28;1890;-67
2021/09/16 09:11:49;;;;;;;;;;;;;;;29.78;38.11;99955.31;5015122;28;870;-67
2021/09/16 09:14:23;;;;;;;;;;;;;;;29.61;38.19;99949.75;5014959;28;842;-66
2021/09/16 09:16:50;;;;;;;;;;;;;;;29.59;38.14;99945.91;5014786;28;1391;-66
2021/09/16 09:19:19;;;;;;;;;;;;;;;29.58;37.98;99952.91;5014917;28;834;-66
2021/09/16 09:21:46;;;;;;;;;;;;;;;29.44;38.59;99935.66;5015067;28;881;-66
2021/09/16 09:24:27;;;;;;;;;;;;;;;29.25;37.63;99940.50;5014731;28;886;-66
2021/09/16 09:26:54;;;;;;;;;;;;;;;29.23;39.19;99934.56;5014677;28;881;-66
2021/09/16 09:29:21;;;;;;;;;;;;;;;29.57;38.50;99935.03;5014594;28;1918;-67
2021/09/16 09:31:55;;;;;;;;;;;;;;;29.74;38.35;99934.13;5014644;28;803;-67
2021/09/16 09:34:23;;;;;;;;;;;;;;;29.76;37.67;99932.28;5014616;28;807;-66
2021/09/16 09:36:51;;;;;;;;;;;;;;;29.91;37.63;99932.66;5014889;28;827;-67
2021/09/16 09:39:26;;;;;;;;;;;;;;;30.00;37.46;99928.66;5014456;28;850;-68
2021/09/16 09:41:53;;;;;;;;;;;;;;;29.98;37.41;99919.09;5014317;28;973;-67
2021/09/16 09:44:20;;;;;;;;;;;;;;;29.99;37.11;99927.13;5014542;28;803;-67
2021/09/16 09:46:49;;;;;;;;;;;;;;;30.01;37.61;99927.34;5014378;28;819;-67
2021/09/16 09:49:18;;;;;;;;;;;;;;;29.87;37.80;99923.63;4996641;28;1945;-66
2021/09/16 09:51:45;;;;;;;;;;;;;;;29.72;38.11;99917.56;5014243;28;823;-66
2021/09/16 09:54:29;;;;;;;;;;;;;;;29.65;37.77;99918.13;4995300;28;1285;-66
2021/09/16 09:57:04;;;;;;;;;;;;;;;29.70;37.70;99928.72;5014095;28;877;-66
2021/09/16 09:59:49;;;;;;;;;;;;;;;29.81;37.37;99922.94;5014344;28;800;-66
2021/09/16 10:02:17;;;;;;;;;;;;;;;29.95;36.58;99923.03;5013997;28;830;-66
2021/09/16 10:04:43;;;;;;;;;;;;;;;30.19;36.10;99925.84;4996402;28;934;-67
2021/09/16 10:07:26;;;;;;;;;;;;;;;30.00;35.43;99925.03;5013992;28;831;-67
2021/09/16 10:09:54;;;;;;;;;;;;;;;29.73;36.30;99919.13;5013805;28;1926;-66
2021/09/16 10:12:21;;;;;;;;;;;;;;;29.93;36.22;99917.84;5013837;28;807;-66
2021/09/16 10:14:48;;;;;;;;;;;;;;;30.05;35.40;99915.66;5013742;28;854;-66
2021/09/16 10:17:15;;;;;;;;;;;;;;;30.15;35.34;99924.59;5013796;28;1361;-66
2021/09/16 10:19:42;;;;;;;;;;;;;;;30.45;34.82;99918.78;5013758;28;881;-66
2021/09/16 10:22:12;;;;;;;;;;;;;;;30.43;34.86;99918.59;5013661;28;890;-66
2021/09/16 10:24:38;;;;;;;;;;;;;;;30.29;35.37;99917.72;5013681;28;819;-66
2021/09/16 10:27:25;;;;;;;;;;;;;;;30.24;34.82;99919.31;5013558;28;854;-66
2021/09/16 10:29:52;;;;;;;;;;;;;;;30.31;34.78;99920.81;5013239;28;1918;-66
2021/09/16 10:32:19;;;;;;;;;;;;;;;30.66;34.81;99905.56;5013537;28;791;-66
2021/09/16 10:34:55;;;;;;;;;;;;;;;30.93;33.67;99906.44;5013432;28;807;-67
2021/09/16 10:37:23;;;;;;;;;;;;;;;31.00;34.04;99899.31;5013381;28;878;-66
2021/09/16 10:39:50;;;;;;;;;;;;;;;31.21;33.26;99890.19;5013359;28;823;-66
2021/09/16 10:42:18;;;;;;;;;;;;;;;31.32;32.52;99884.25;5013195;28;862;-66
2021/09/16 10:44:45;;;;;;;;;;;;;;;31.39;33.01;99894.25;5013297;28;853;-66
2021/09/16 10:47:18;;;;;;;;;;;;;;;31.58;32.26;99880.72;5013211;28;901;-66
2021/09/16 10:49:45;;;;;;;;;;;;;;;31.27;32.22;99873.72;5013330;28;1949;-66
2021/09/16 10:52:12;;;;;;;;;;;;;;;31.36;32.87;99873.28;5013296;28;854;-66
2021/09/16 10:54:45;;;;;;;;;;;;;;;31.73;32.08;99880.19;5013925;28;739;-67
2021/09/16 10:57:39;;;;;;;;;;;;;;;31.99;31.53;99884.38;5012986;28;791;-66
2021/09/16 11:00:07;;;;;;;;;;;;;;;32.33;30.70;99878.69;5013022;28;794;-67
2021/09/16 11:02:34;;;;;;;;;;;;;;;32.57;29.78;99876.91;5012957;28;819;-67
2021/09/16 11:05:02;;;;;;;;;;;;;;;32.78;29.54;99876.94;5012382;28;854;-67
2021/09/16 11:07:38;;;;;;;;;;;;;;;32.96;29.04;99870.22;5012952;28;850;-66
2021/09/16 11:10:16;;;;;;;;;;;;;;;32.08;30.56;99873.25;5012949;28;1948;-66
2021/09/16 11:12:44;;;;;;;;;;;;;;;31.81;31.05;99866.75;5012842;28;826;-66
2021/09/16 11:15:12;;;;;;;;;;;;;;;31.34;31.70;99865.28;5012594;28;869;-67
2021/09/16 11:17:39;;;;;;;;;;;;;;;31.14;32.21;99865.91;5012609;28;1294;-67
2021/09/16 11:20:06;;;;;;;;;;;;;;;31.28;31.35;99860.97;4994973;28;1307;-67
2021/09/16 11:22:33;;;;;;;;;;;;;;;31.75;30.92;99854.69;5012542;28;827;-66
2021/09/16 11:25:00;;;;;;;;;;;;;;;32.51;30.31;99854.09;5012594;28;799;-66
2021/09/16 11:27:28;;;;;;;;;;;;;;;33.09;28.70;99852.97;5012362;28;1317;-65
2021/09/16 11:29:56;;;;;;;;;;;;;;;32.28;29.33;99848.88;5012397;28;1981;-66
2021/09/16 11:32:30;;;;;;;;;;;;;;;32.25;29.41;99850.00;5012586;28;823;-66
2021/09/16 11:34:58;;;;;;;;;;;;;;;32.07;29.63;99842.34;5012698;28;838;-66
2021/09/16 11:37:32;;;;;;;;;;;;;;;31.80;29.89;99836.66;5012572;28;799;-66
2021/09/16 11:40:09;;;;;;;;;;;;;;;30.94;30.95;99850.16;5012174;28;858;-66
2021/09/16 11:42:39;;;;;;;;;;;;;;;30.05;32.47;99844.44;5012750;28;862;-67
2021/09/16 11:45:12;;;;;;;;;;;;;;;29.58;33.27;99851.16;5012224;28;831;-66
2021/09/16 11:47:41;;;;;;;;;;;;;;;29.57;33.50;99846.75;5012150;28;954;-66
2021/09/16 11:50:10;;;;;;;;;;;;;;;29.45;33.71;99842.50;5012040;28;1965;-66
2021/09/16 11:52:37;;;;;;;;;;;;;;;29.13;34.18;99843.09;5012132;28;897;-66
2021/09/16 11:55:05;;;;;;;;;;;;;;;28.89;34.70;99838.06;5012033;28;819;-66
2021/09/16 11:57:31;;;;;;;;;;;;;;;28.89;35.15;99832.38;5012063;28;831;-66
2021/09/16 12:00:17;;;;;;;;;;;;;;;28.71;34.84;99837.44;5012004;28;870;-66
2021/09/16 12:02:47;;;;;;;;;;;;;;;29.29;34.33;99833.59;5011935;28;898;-66
2021/09/16 12:05:34;;;;;;;;;;;;;;;29.92;33.25;99823.06;5012123;28;815;-66
2021/09/16 12:08:01;;;;;;;;;;;;;;;30.65;31.39;99824.13;4994218;28;1398;-66
2021/09/16 12:10:42;;;;;;;;;;;;;;;30.88;30.89;99812.41;5011694;28;1886;-67
2021/09/16 12:13:11;;;;;;;;;;;;;;;31.01;30.92;99815.28;5011846;28;842;-63
2021/09/16 12:15:38;;;;;;;;;;;;;;;31.49;29.81;99806.88;5011649;28;909;-67
2021/09/16 12:18:06;;;;;;;;;;;;;;;31.80;30.61;99799.50;5010914;28;1234;-66
2021/09/16 12:20:33;;;;;;;;;;;;;;;32.09;29.08;99799.69;4994028;28;1352;-66
2021/09/16 12:23:01;;;;;;;;;;;;;;;32.25;29.37;99789.19;5012038;28;862;-66
2021/09/16 12:25:28;;;;;;;;;;;;;;;32.40;28.88;99792.22;5011746;28;839;-66
2021/09/16 12:28:06;;;;;;;;;;;;;;;32.27;28.67;99787.31;5011770;28;866;-67
2021/09/16 12:30:37;;;;;;;;;;;;;;;32.17;28.90;99785.47;5011878;28;1971;-66
2021/09/16 12:33:24;;;;;;;;;;;;;;;32.25;29.02;99786.34;5011744;28;874;-66
2021/09/16 12:36:11;;;;;;;;;;;;;;;32.19;28.81;99783.59;5011521;28;1908;-67
2021/09/16 12:38:42;;;;;;;;;;;;;;;32.19;28.89;99783.59;5011445;28;1263;-66
2021/09/16 12:41:27;;;;;;;;;;;;;;;32.00;28.59;99783.75;5011600;28;870;-66
2021/09/16 12:44:26;;;;;;;;;;;;;;;32.09;29.50;99773.94;5011572;28;871;-66
2021/09/16 12:46:52;;;;;;;;;;;;;;;32.28;28.67;99776.63;4913052;29;1352;-66
2021/09/16 12:49:28;;;;;;;;;;;;;;;32.15;28.75;99771.75;4912967;29;1890;-66
2021/09/16 12:51:58;;;;;;;;;;;;;;;32.20;28.77;99782.28;4913220;29;844;-66
2021/09/16 12:54:25;;;;;;;;;;;;;;;32.14;28.80;99778.78;4913115;29;804;-66
2021/09/16 12:56:52;;;;;;;;;;;;;;;32.11;29.00;99777.03;4912921;29;945;-66
2021/09/16 12:59:20;;;;;;;;;;;;;;;32.03;28.63;99781.88;4913068;29;891;-66
2021/09/16 13:01:47;;;;;;;;;;;;;;;32.22;28.61;99779.66;4913237;29;855;-65
2021/09/16 13:04:14;;;;;;;;;;;;;;;32.39;28.28;99767.81;4912936;29;986;-66
2021/09/16 13:06:41;;;;;;;;;;;;;;;32.93;27.46;99771.16;4912953;29;871;-65
2021/09/16 13:09:07;;;;;;;;;;;;;;;32.94;27.19;99769.81;4912733;29;1962;-66
2021/09/16 13:11:34;;;;;;;;;;;;;;;32.67;27.48;99763.53;4912904;29;911;-66
2021/09/16 13:14:17;;;;;;;;;;;;;;;32.99;27.81;99756.69;4913153;29;800;-66